Terminal Aerodrome Forecast
Issued by NWS Blacksburg, VA

Home | Current Version | Previous Version | Text Only | Print | Product List | Glossary On
Versions: 1 2 3 4 5 6 7 8 9 10 11 12 13 14 15 16 17 18 19 20 21 22 23 24 25 26 27 28 29 30 31 32 33 34 35 36 37 38 39 40 41 42 43 44 45 46 47 48 49 50
000
FTUS41 KRNK 261549 AAA
TAFBLF
TAF AMD
KBLF 261549Z 2616/2712 26005KT 6SM -RASN OVC009
     FM262000 30010G16KT 1SM -SN OVC004
      TEMPO 2621/2623 1/2SM SN VV002
     FM270000 30010G16KT 4SM -SN OVC007
     FM270600 30009KT 6SM -SN OVC012=

USA.gov is the U.S. government's official web portal to all federal, state and local government web resources and services.